Time;durP1;ratioP1;P1;durP2;ratioP2;P2;SDS_P1;SDS_P2;PMS_P1;PMS_P2;Temp;Humidity;BMP_temperature;BMP_pressure;BME280_temperature;BME280_humidity;BME280_pressure;Samples;Min_cycle;Max_cycle;Signal;HPM_P1;HPM_P2
2021/07/14 00:01:07;;;;;;;21.25;19.15;;;;;;;21.80;78.19;100164.37;1647185;82;25861;-77
2021/07/14 00:03:34;;;;;;;21.52;19.25;;;;;;;21.74;78.23;100162.72;1714970;82;26358;-77
2021/07/14 00:06:01;;;;;;;24.47;19.15;;;;;;;21.66;78.36;100170.91;1723301;82;28122;-77
2021/07/14 00:08:29;;;;;;;21.02;18.98;;;;;;;21.62;78.54;100170.34;1699223;82;25846;-77
2021/07/14 00:10:56;;;;;;;21.90;19.70;;;;;;;21.60;78.68;100165.70;1645675;82;25896;-77
2021/07/14 00:13:28;;;;;;;21.85;19.60;;;;;;;21.57;78.79;100164.33;1699020;82;26108;-77
2021/07/14 00:24:09;;;;;;;20.75;18.70;;;;;;;21.43;79.31;100165.38;1677268;83;25879;-77
2021/07/14 00:26:36;;;;;;;21.82;19.62;;;;;;;21.43;79.30;100163.19;1715005;83;26204;-77
2021/07/14 00:29:05;;;;;;;20.68;18.48;;;;;;;21.44;79.39;100160.75;1716446;82;25808;-77
2021/07/14 00:31:32;;;;;;;23.22;19.30;;;;;;;21.39;79.32;100155.28;1639838;82;27729;-77
2021/07/14 00:33:59;;;;;;;21.23;19.20;;;;;;;21.38;79.45;100161.27;1705116;82;26637;-77
2021/07/14 00:36:26;;;;;;;22.17;19.92;;;;;;;21.39;79.53;100162.09;1736850;82;25797;-77
2021/07/14 00:38:53;;;;;;;22.00;19.95;;;;;;;21.39;79.48;100164.28;1697330;82;25987;-77
2021/07/14 00:41:20;;;;;;;21.68;19.37;;;;;;;21.40;79.59;100156.93;1661323;82;26581;-77
2021/07/14 00:43:47;;;;;;;20.92;18.70;;;;;;;21.36;79.49;100147.66;1704389;82;27469;-77
2021/07/14 00:46:22;;;;;;;20.77;18.73;;;;;;;21.33;79.55;100150.91;1741106;81;26067;-77
2021/07/14 00:48:51;;;;;;;21.48;17.82;;;;;;;21.33;79.62;100158.55;1697385;83;26480;-77
2021/07/14 00:51:18;;;;;;;20.88;18.75;;;;;;;21.33;79.70;100165.89;1687557;83;26133;-77
2021/07/14 00:53:46;;;;;;;23.25;19.05;;;;;;;21.33;79.75;100165.35;1694062;83;25773;-77
2021/07/14 00:56:14;;;;;;;21.68;19.25;;;;;;;21.31;79.59;100157.16;1730496;82;28145;-77
2021/07/14 00:58:41;;;;;;;20.43;18.48;;;;;;;21.28;79.69;100161.23;1714244;81;25824;-77
2021/07/14 01:01:08;;;;;;;21.05;18.95;;;;;;;21.28;79.71;100161.23;1729213;81;25957;-77
2021/07/14 01:03:44;;;;;;;21.42;19.27;;;;;;;21.26;79.63;100159.33;1725569;81;25920;-77
2021/07/14 01:06:16;;;;;;;22.17;19.00;;;;;;;21.22;79.71;100160.13;1744942;81;25953;-77
2021/07/14 01:09:03;;;;;;;20.65;18.65;;;;;;;21.16;79.91;100163.38;1728878;82;27544;-76
2021/07/14 01:11:33;;;;;;;20.15;18.35;;;;;;;21.14;80.01;100171.00;1701148;82;26437;-77
2021/07/14 01:14:21;;;;;;;19.52;17.73;;;;;;;21.15;80.04;100173.19;1745758;81;25809;-77
2021/07/14 01:16:44;;;;;;;20.12;18.00;;;;;;;21.11;80.05;100166.08;1742742;79;26302;-77
2021/07/14 01:19:22;;;;;;;21.52;19.25;;;;;;;21.03;80.08;100161.14;1720489;81;25832;-77
2021/07/14 01:21:51;;;;;;;20.65;18.60;;;;;;;20.97;80.28;100168.98;1710103;81;28519;-77
2021/07/14 01:24:43;;;;;;;20.77;18.57;;;;;;;20.89;80.34;100170.03;1744637;81;25924;-77
2021/07/14 01:27:14;;;;;;;20.40;18.52;;;;;;;20.86;80.66;100170.02;1734477;81;26444;-77
2021/07/14 01:29:57;;;;;;;19.35;17.48;;;;;;;20.86;80.82;100171.91;1704883;81;25822;-77
2021/07/14 01:32:27;;;;;;;20.57;17.48;;;;;;;20.84;80.77;100157.21;1733743;81;26533;-77
2021/07/14 01:35:02;;;;;;;22.90;19.32;;;;;;;20.77;80.75;100163.42;1692274;81;27556;-77
2021/07/14 01:37:31;;;;;;;19.62;17.82;;;;;;;20.73;81.02;100165.03;1699465;82;26014;-77
2021/07/14 01:40:02;;;;;;;20.62;18.62;;;;;;;20.69;81.16;100162.56;1701021;81;26608;-76
2021/07/14 01:42:31;;;;;;;20.35;18.17;;;;;;;20.69;81.19;100166.65;1741720;80;26262;-77
2021/07/14 01:45:00;;;;;;;21.75;19.57;;;;;;;20.71;81.27;100167.20;1723280;81;26538;-77
2021/07/14 01:47:29;;;;;;;21.80;19.02;;;;;;;20.70;81.22;100165.02;1682459;82;27559;-77
2021/07/14 01:49:58;;;;;;;19.65;17.62;;;;;;;20.70;81.29;100167.73;1691415;81;26362;-77
2021/07/14 01:52:28;;;;;;;20.30;18.12;;;;;;;20.67;81.20;100168.28;1745744;81;26504;-77
2021/07/14 01:54:59;;;;;;;22.32;20.15;;;;;;;20.66;81.25;100164.44;1727921;81;25903;-77
2021/07/14 01:57:29;;;;;;;24.00;18.85;;;;;;;20.66;81.33;100165.27;1727949;81;26021;-77
2021/07/14 01:59:56;;;;;;;21.40;19.12;;;;;;;20.67;81.36;100164.73;1740534;81;27697;-77
2021/07/14 02:02:27;;;;;;;21.10;18.05;;;;;;;20.65;81.31;100170.45;1752554;80;26066;-77
2021/07/14 02:04:56;;;;;;;21.73;19.52;;;;;;;20.60;81.32;100175.02;1720611;81;25303;-77
2021/07/14 02:07:27;;;;;;;21.17;19.02;;;;;;;20.55;81.38;100172.29;1661756;81;25914;-77
2021/07/14 02:09:56;;;;;;;20.27;18.27;;;;;;;20.52;81.61;100172.27;1715369;82;25858;-77
2021/07/14 02:12:26;;;;;;;21.05;19.00;;;;;;;20.47;81.58;100171.39;1715433;83;27518;-77
2021/07/14 02:15:06;;;;;;;19.92;18.00;;;;;;;20.44;81.67;100179.56;1683291;82;25831;-77
2021/07/14 02:17:39;;;;;;;20.60;18.40;;;;;;;20.45;81.83;100184.44;1733961;81;26223;-77
2021/07/14 02:20:15;;;;;;;20.35;18.23;;;;;;;20.40;81.96;100181.70;1715453;81;25757;-77
2021/07/14 02:22:42;;;;;;;21.93;18.90;;;;;;;20.38;81.94;100186.58;1746155;81;25767;-77
2021/07/14 02:25:11;;;;;;;23.12;19.30;;;;;;;20.35;82.02;100182.48;1720679;81;28273;-77
2021/07/14 02:27:39;;;;;;;19.50;17.73;;;;;;;20.36;82.21;100190.11;1726367;81;25825;-77
2021/07/14 02:30:16;;;;;;;19.87;18.02;;;;;;;20.38;82.30;100186.58;1719513;81;25871;-77
2021/07/14 02:32:38;;;;;;;20.32;18.37;;;;;;;20.38;82.15;100184.66;1732847;82;25878;-77
2021/07/14 02:35:07;;;;;;;20.12;18.02;;;;;;;20.37;82.14;100181.67;1712807;81;25820;-77
2021/07/14 02:38:06;;;;;;;19.85;17.75;;;;;;;20.37;82.14;100177.59;1677048;81;27500;-77
2021/07/14 02:40:41;;;;;;;20.70;17.92;;;;;;;20.35;82.04;100179.76;1698629;82;25854;-76
2021/07/14 02:43:10;;;;;;;20.97;18.48;;;;;;;20.22;82.08;100171.20;1736175;81;25834;-77
2021/07/14 02:45:45;;;;;;;20.25;18.17;;;;;;;20.16;82.33;100168.97;1720310;81;25654;-77
2021/07/14 02:48:13;;;;;;;19.95;17.98;;;;;;;20.12;82.59;100166.48;1710261;82;25931;-77
2021/07/14 02:50:40;;;;;;;20.08;18.15;;;;;;;20.10;82.77;100166.47;1709720;81;27597;-77
2021/07/14 02:53:15;;;;;;;21.33;19.20;;;;;;;20.09;82.81;100164.28;1723707;82;25938;-77
2021/07/14 02:55:46;;;;;;;20.80;18.80;;;;;;;20.12;82.97;100162.95;1708706;81;25327;-77
2021/07/14 02:58:14;;;;;;;20.82;18.70;;;;;;;20.12;82.95;100168.38;1688946;81;26126;-77
2021/07/14 03:00:42;;;;;;;20.30;18.20;;;;;;;20.08;82.87;100162.63;1734946;81;25913;-77
2021/07/14 03:03:11;;;;;;;20.88;18.67;;;;;;;20.07;82.97;100160.17;1709258;81;27518;-76
2021/07/14 03:05:39;;;;;;;21.07;17.62;;;;;;;20.05;83.10;100151.45;1688036;83;25984;-76
2021/07/14 03:08:13;;;;;;;20.60;18.30;;;;;;;20.04;83.19;100157.98;1660711;83;25807;-77
2021/07/14 03:10:36;;;;;;;22.50;20.10;;;;;;;19.99;83.24;100156.84;1736497;81;27067;-77
2021/07/14 03:13:05;;;;;;;21.30;18.10;;;;;;;19.96;83.39;100156.02;1728778;82;26523;-77
2021/07/14 03:15:36;;;;;;;20.60;18.62;;;;;;;19.95;83.51;100142.69;1733617;82;27865;-77
2021/07/14 03:18:06;;;;;;;20.60;18.60;;;;;;;19.94;83.63;100145.11;1691947;80;25806;-77
2021/07/14 03:20:34;;;;;;;20.50;18.55;;;;;;;19.91;83.74;100152.41;1699888;82;25846;-77
2021/07/14 03:23:02;;;;;;;19.77;17.98;;;;;;;19.94;83.98;100158.70;1744939;81;26499;-77
2021/07/14 03:25:29;;;;;;;21.25;19.07;;;;;;;19.93;83.94;100156.52;1711424;81;25785;-77
2021/07/14 03:27:57;;;;;;;25.15;19.25;;;;;;;19.93;84.02;100161.16;1667939;81;27579;-76
2021/07/14 03:30:25;;;;;;;20.97;18.67;;;;;;;19.96;84.10;100156.55;1685494;83;26560;-77
2021/07/14 03:32:55;;;;;;;22.05;19.60;;;;;;;19.98;84.13;100163.91;1710127;83;25697;-77
2021/07/14 03:35:22;;;;;;;20.90;18.57;;;;;;;20.00;84.21;100165.30;1712648;82;25812;-77
2021/07/14 03:37:52;;;;;;;21.90;19.25;;;;;;;20.05;84.25;100176.75;1668336;83;26542;-77
2021/07/14 03:40:20;;;;;;;20.02;17.90;;;;;;;20.08;84.33;100177.58;1696096;82;27468;-77
2021/07/14 03:42:51;;;;;;;21.35;19.02;;;;;;;20.09;84.30;100160.20;1722197;82;26007;-77
2021/07/14 03:45:18;;;;;;;21.82;19.15;;;;;;;20.10;84.25;100163.21;1694685;83;26586;-76
2021/07/14 03:47:46;;;;;;;21.27;19.27;;;;;;;20.12;84.32;100169.74;1680258;82;26185;-77
2021/07/14 03:50:14;;;;;;;20.95;18.85;;;;;;;20.19;84.53;100175.80;1670776;84;25772;-77
2021/07/14 03:52:44;;;;;;;20.90;18.42;;;;;;;20.27;84.45;100173.98;1686249;84;27447;-76
2021/07/14 03:55:12;;;;;;;20.68;18.65;;;;;;;20.32;84.40;100169.92;1666690;84;25897;-77
2021/07/14 03:57:39;;;;;;;20.75;18.45;;;;;;;20.39;84.40;100170.53;1662167;84;25380;-77
2021/07/14 04:00:08;;;;;;;20.85;18.60;;;;;;;20.46;84.36;100175.21;1683292;83;26222;-76
2021/07/14 04:02:41;;;;;;;20.32;18.32;;;;;;;20.51;84.27;100172.50;1709022;83;25923;-76
2021/07/14 04:05:09;;;;;;;21.27;18.85;;;;;;;20.58;84.31;100172.57;1664824;84;27429;-76
2021/07/14 04:07:41;;;;;;;19.77;17.67;;;;;;;20.63;84.24;100168.53;1643189;82;26214;-77
2021/07/14 04:10:10;;;;;;;20.27;18.25;;;;;;;20.68;84.15;100172.63;1707907;83;26487;-77
2021/07/14 04:12:37;;;;;;;19.62;17.62;;;;;;;20.73;83.96;100180.84;1697997;83;26124;-76
2021/07/14 04:15:05;;;;;;;21.12;19.02;;;;;;;20.80;83.89;100181.14;1682589;83;26551;-76
2021/07/14 04:17:32;;;;;;;20.82;18.65;;;;;;;20.87;83.95;100181.73;1666589;84;27572;-76
2021/07/14 04:20:01;;;;;;;21.27;19.15;;;;;;;20.94;84.01;100183.12;1655577;83;26150;-77
2021/07/14 04:22:28;;;;;;;20.43;18.07;;;;;;;21.02;83.95;100176.36;1701613;83;26464;-77
2021/07/14 04:24:55;;;;;;;20.15;18.05;;;;;;;21.10;83.98;100175.88;1671950;84;25539;-76
2021/07/14 04:27:22;;;;;;;23.38;19.87;;;;;;;21.18;83.93;100173.47;1657078;84;26445;-76
2021/07/14 04:29:49;;;;;;;19.98;18.12;;;;;;;21.27;83.98;100171.05;1676143;84;28252;-77
2021/07/14 04:32:16;;;;;;;21.65;19.45;;;;;;;21.35;83.89;100173.25;1698142;83;25865;-76
2021/07/14 04:34:43;;;;;;;21.33;19.15;;;;;;;21.44;83.89;100174.38;1676065;83;26588;-76
2021/07/14 04:37:10;;;;;;;22.05;18.73;;;;;;;21.53;84.04;100180.13;1676156;81;26016;-77
2021/07/14 04:39:37;;;;;;;21.60;19.32;;;;;;;21.59;83.73;100181.23;1685029;83;25770;-76
2021/07/14 04:42:04;;;;;;;21.48;19.17;;;;;;;21.65;83.83;100182.88;1706820;83;27553;-76
2021/07/14 04:44:48;;;;;;;21.05;18.82;;;;;;;21.72;83.81;100190.80;1687651;83;25859;-76
2021/07/14 04:47:03;;;;;;;21.45;19.35;;;;;;;21.76;83.73;100192.73;1662760;83;25886;-77
2021/07/14 04:49:31;;;;;;;22.85;18.25;;;;;;;21.83;83.49;100187.88;1635707;82;25921;-76
2021/07/14 04:51:58;;;;;;;19.40;16.42;;;;;;;21.88;83.40;100183.77;1738475;82;25810;-77
2021/07/14 04:54:25;;;;;;;18.87;16.95;;;;;;;21.93;83.23;100176.97;1744656;81;27581;-77
2021/07/14 04:56:52;;;;;;;22.37;16.95;;;;;;;21.99;83.01;100174.52;1745666;80;26078;-77
2021/07/14 04:59:19;;;;;;;19.32;17.27;;;;;;;22.06;83.22;100173.71;1685397;82;25881;-78
2021/07/14 05:01:46;;;;;;;19.35;17.32;;;;;;;22.14;83.45;100171.80;1693091;81;26095;-76
2021/07/14 05:04:13;;;;;;;19.70;17.60;;;;;;;22.21;83.14;100169.63;1742419;81;25873;-76
2021/07/14 05:06:40;;;;;;;20.32;18.25;;;;;;;22.25;82.92;100165.79;1741364;81;27432;-77
2021/07/14 05:09:07;;;;;;;22.75;17.42;;;;;;;22.28;82.93;100167.41;1674311;81;25835;-77
2021/07/14 05:11:34;;;;;;;20.02;16.55;;;;;;;22.36;83.11;100161.97;1702624;81;25821;-77
2021/07/14 05:14:02;;;;;;;20.10;17.15;;;;;;;22.46;82.88;100157.86;1742064;81;25840;-77
2021/07/14 05:16:29;;;;;;;21.57;17.52;;;;;;;22.54;82.88;100157.86;1752187;80;25940;-77
2021/07/14 05:18:56;;;;;;;20.57;17.98;;;;;;;22.64;82.89;100156.50;1689365;81;28289;-77
2021/07/14 05:21:23;;;;;;;19.70;17.62;;;;;;;22.69;82.15;100159.23;1702574;81;25836;-77
2021/07/14 05:23:50;;;;;;;18.20;16.15;;;;;;;22.76;82.21;100153.73;1733517;82;25947;-77
2021/07/14 05:26:18;;;;;;;21.17;16.90;;;;;;;22.85;82.10;100157.54;1755754;79;25718;-77
2021/07/14 05:28:46;;;;;;;18.23;16.40;;;;;;;22.91;81.58;100161.06;1682190;81;25991;-77
2021/07/14 05:31:13;;;;;;;18.60;16.17;;;;;;;22.96;81.75;100168.70;1652844;82;27679;-77
2021/07/14 05:33:40;;;;;;;20.15;16.48;;;;;;;23.06;81.96;100167.02;1738986;81;25858;-77
2021/07/14 05:36:07;;;;;;;20.52;17.67;;;;;;;23.12;81.97;100163.98;1742672;80;25688;-77
2021/07/14 05:38:35;;;;;;;19.45;16.20;;;;;;;23.20;81.74;100157.97;1689613;81;26102;-77
2021/07/14 05:41:02;;;;;;;18.82;16.40;;;;;;;23.30;81.75;100161.18;1706523;81;25813;-77
2021/07/14 05:43:29;;;;;;;18.00;16.20;;;;;;;23.37;81.59;100149.44;1740349;82;28157;-77
2021/07/14 05:45:56;;;;;;;18.62;16.65;;;;;;;23.44;81.84;100150.75;1755577;80;25725;-77
2021/07/14 05:48:24;;;;;;;18.42;16.67;;;;;;;23.49;81.76;100149.36;1676455;81;26529;-77
2021/07/14 05:50:53;;;;;;;18.92;16.93;;;;;;;23.56;81.62;100150.42;1714754;80;25359;-77
2021/07/14 05:53:20;;;;;;;20.72;17.35;;;;;;;23.62;81.29;100152.84;1732342;81;25733;-77
2021/07/14 05:55:47;;;;;;;18.62;16.62;;;;;;;23.71;81.28;100151.69;1736318;81;28291;-77
2021/07/14 05:58:14;;;;;;;19.20;17.23;;;;;;;23.78;81.34;100150.80;1685554;81;25766;-77
2021/07/14 06:00:42;;;;;;;18.70;16.85;;;;;;;23.86;81.34;100151.59;1684586;81;26439;-77
2021/07/14 06:03:09;;;;;;;19.60;16.80;;;;;;;23.90;80.82;100157.30;1736663;81;26153;-77
2021/07/14 06:05:37;;;;;;;20.90;16.40;;;;;;;23.94;80.80;100155.08;1728705;81;25887;-77
2021/07/14 06:08:05;;;;;;;21.12;16.52;;;;;;;24.03;80.73;100156.11;1670320;81;27474;-77
2021/07/14 06:10:32;;;;;;;21.60;16.35;;;;;;;24.14;80.82;100159.06;1673653;81;25805;-77
2021/07/14 06:12:59;;;;;;;19.25;16.77;;;;;;;24.21;80.35;100155.42;1741601;81;25855;-77
2021/07/14 06:15:27;;;;;;;19.45;17.45;;;;;;;24.27;79.94;100150.17;1701549;82;26490;-77
2021/07/14 06:17:56;;;;;;;21.07;17.37;;;;;;;24.36;79.61;100148.99;1640872;81;25303;-77
2021/07/14 06:20:23;;;;;;;19.12;17.20;;;;;;;24.43;79.98;100144.83;1676920;81;27574;-77
2021/07/14 06:22:50;;;;;;;19.17;16.95;;;;;;;24.53;79.88;100136.51;1716120;83;26565;-77
2021/07/14 06:25:17;;;;;;;18.50;16.60;;;;;;;24.55;79.34;100136.20;1734984;81;25843;-78
2021/07/14 06:27:46;;;;;;;20.17;17.20;;;;;;;24.58;79.26;100138.92;1690816;81;26573;-77
2021/07/14 06:30:15;;;;;;;18.23;16.40;;;;;;;24.57;78.96;100138.68;1710969;81;25971;-77
2021/07/14 06:32:43;;;;;;;18.67;16.87;;;;;;;24.59;79.09;100139.20;1714661;83;28281;-77
2021/07/14 06:35:13;;;;;;;18.60;16.50;;;;;;;24.62;79.29;100143.54;1715730;82;25877;-77
2021/07/14 06:37:40;;;;;;;19.57;16.48;;;;;;;24.66;79.36;100142.42;1672119;82;25836;-77
2021/07/14 06:40:09;;;;;;;18.73;16.85;;;;;;;24.73;79.33;100153.28;1710806;81;25696;-78
2021/07/14 06:42:38;;;;;;;18.90;16.97;;;;;;;24.79;79.31;100147.22;1742327;81;26472;-77
2021/07/14 06:45:08;;;;;;;19.32;17.27;;;;;;;24.88;79.65;100145.48;1739392;81;27533;-77
2021/07/14 06:47:36;;;;;;;19.87;17.77;;;;;;;25.00;79.47;100143.95;1699930;81;26091;-77
2021/07/14 06:50:10;;;;;;;18.42;16.52;;;;;;;25.13;79.05;100141.87;1684330;81;26651;-77
2021/07/14 06:52:40;;;;;;;20.60;17.12;;;;;;;25.24;78.94;100140.64;1730543;81;26439;-77
2021/07/14 06:55:09;;;;;;;19.65;17.25;;;;;;;25.37;78.98;100137.73;1747073;81;25812;-77
2021/07/14 06:57:37;;;;;;;23.50;16.73;;;;;;;25.48;78.52;100139.80;1646015;82;27484;-77
2021/07/14 07:00:07;;;;;;;17.80;16.20;;;;;;;25.54;78.11;100140.81;1674245;82;25902;-77
2021/07/14 07:02:34;;;;;;;18.37;16.65;;;;;;;25.62;77.76;100137.39;1744594;81;25859;-76
2021/07/14 07:05:01;;;;;;;19.55;17.52;;;;;;;25.73;78.47;100144.36;1740161;81;25757;-76
2021/07/14 07:07:28;;;;;;;19.75;17.67;;;;;;;25.82;78.18;100137.65;1685419;83;26210;-77
2021/07/14 07:09:56;;;;;;;17.60;15.80;;;;;;;25.92;77.97;100136.11;1687697;81;27467;-77
2021/07/14 07:12:23;;;;;;;19.50;16.70;;;;;;;26.01;77.05;100136.52;1735500;81;25824;-77
2021/07/14 07:14:50;;;;;;;19.25;17.45;;;;;;;26.10;76.76;100131.19;1702466;82;25973;-77
2021/07/14 07:17:17;;;;;;;19.23;17.17;;;;;;;26.20;76.53;100131.00;1687954;81;26025;-76
2021/07/14 07:19:44;;;;;;;19.10;17.30;;;;;;;26.29;76.69;100124.27;1712889;81;26574;-77
2021/07/14 07:22:11;;;;;;;19.67;17.57;;;;;;;26.42;77.22;100127.60;1714792;82;27447;-76
2021/07/14 07:24:38;;;;;;;18.95;16.87;;;;;;;26.48;76.50;100131.33;1692872;83;26656;-76
2021/07/14 07:27:08;;;;;;;18.10;16.32;;;;;;;26.55;76.42;100139.17;1711234;81;25906;-76
2021/07/14 07:29:36;;;;;;;19.70;17.70;;;;;;;26.66;76.87;100141.44;1713465;82;25800;-77
2021/07/14 07:32:04;;;;;;;22.50;16.57;;;;;;;26.79;76.24;100137.11;1715592;82;25824;-77
2021/07/14 07:34:31;;;;;;;21.37;16.52;;;;;;;26.87;75.95;100132.82;1718304;83;27478;-76
2021/07/14 07:37:00;;;;;;;18.62;16.62;;;;;;;26.96;75.00;100128.24;1688503;82;25823;-77
2021/07/14 07:39:27;;;;;;;18.02;16.32;;;;;;;27.07;75.03;100126.92;1688454;83;25969;-77
2021/07/14 07:41:56;;;;;;;17.90;16.05;;;;;;;27.15;74.28;100122.89;1718761;82;26621;-77
2021/07/14 07:44:23;;;;;;;17.42;15.78;;;;;;;27.24;73.96;100124.35;1715322;83;25776;-77
2021/07/14 07:46:50;;;;;;;18.73;16.50;;;;;;;27.34;73.81;100124.13;1660152;83;27557;-77
2021/07/14 07:49:17;;;;;;;17.57;16.00;;;;;;;27.42;73.52;100131.12;1689058;83;25771;-76
2021/07/14 07:51:44;;;;;;;17.90;15.93;;;;;;;27.52;73.57;100134.22;1711434;82;25905;-76
2021/07/14 07:54:11;;;;;;;17.70;15.53;;;;;;;27.60;72.72;100138.98;1710625;83;25779;-76
2021/07/14 07:56:38;;;;;;;18.00;16.40;;;;;;;27.63;73.09;100138.34;1690714;81;25659;-76
2021/07/14 07:59:05;;;;;;;18.05;16.37;;;;;;;27.69;73.08;100134.92;1700736;82;27537;-77
2021/07/14 08:01:32;;;;;;;19.15;17.02;;;;;;;27.75;73.16;100137.80;1741291;81;26054;-76
2021/07/14 08:03:59;;;;;;;18.52;16.82;;;;;;;27.85;73.67;100142.50;1714422;83;25793;-76
2021/07/14 08:06:26;;;;;;;26.82;24.45;;;;;;;27.94;72.42;100150.27;1671160;82;25874;-76
2021/07/14 08:08:54;;;;;;;20.37;18.42;;;;;;;27.97;71.92;100148.29;1661809;83;26576;-76
2021/07/14 08:11:21;;;;;;;19.85;17.92;;;;;;;28.02;72.06;100148.17;1715434;83;28303;-77
2021/07/14 08:13:48;;;;;;;20.02;18.12;;;;;;;28.06;71.61;100146.42;1695146;82;25824;-77
2021/07/14 08:16:15;;;;;;;18.20;16.40;;;;;;;28.12;71.15;100152.63;1643569;83;26520;-76
2021/07/14 08:18:42;;;;;;;17.77;16.30;;;;;;;28.14;71.74;100159.43;1713028;81;26478;-77
2021/07/14 08:21:09;;;;;;;18.10;16.48;;;;;;;28.20;72.17;100154.63;1737625;81;25896;-76
2021/07/14 08:23:36;;;;;;;21.05;17.07;;;;;;;28.28;72.22;100158.00;1722921;81;28217;-76
2021/07/14 08:26:03;;;;;;;19.45;17.48;;;;;;;28.35;72.02;100155.62;1714668;81;25826;-77
2021/07/14 08:28:29;;;;;;;18.48;16.52;;;;;;;28.37;71.98;100155.30;1680425;81;25866;-77
2021/07/14 08:30:56;;;;;;;17.42;15.63;;;;;;;28.42;72.72;100156.55;1719173;81;25791;-77
2021/07/14 08:33:23;;;;;;;20.17;16.85;;;;;;;28.48;71.73;100156.66;1739290;81;25895;-76
2021/07/14 08:35:50;;;;;;;27.82;18.70;;;;;;;28.54;71.27;100160.91;1715354;81;27515;-77
2021/07/14 08:38:17;;;;;;;22.52;18.20;;;;;;;28.64;70.86;100158.72;1701620;81;25813;-77
2021/07/14 08:40:49;;;;;;;18.48;16.57;;;;;;;28.74;70.88;100163.16;1694217;81;25839;-77
2021/07/14 08:43:20;;;;;;;19.65;16.82;;;;;;;28.79;70.91;100155.55;1746620;80;25847;-76
2021/07/14 08:45:51;;;;;;;;;;;;;;;28.85;70.60;100161.17;1739164;81;25479;-77
2021/07/14 08:48:16;;;;;;;18.55;15.48;;;;;;;28.88;71.06;100164.68;1735828;81;28451;-76
2021/07/14 08:50:44;;;;;;;25.30;18.37;;;;;;;28.91;70.39;100166.78;1690049;83;25971;-76
2021/07/14 08:53:18;;;;;;;24.45;18.67;;;;;;;28.99;70.36;100159.69;1712852;83;26409;-76
2021/07/14 08:55:47;;;;;;;25.60;15.75;;;;;;;29.10;69.16;100156.08;1637033;83;26101;-76
2021/07/14 08:58:19;;;;;;;21.42;16.10;;;;;;;29.18;69.47;100150.62;1713139;82;25955;-77
2021/07/14 09:00:48;;;;;;;26.12;18.87;;;;;;;29.26;69.41;100160.86;1723424;82;27532;-76
2021/07/14 09:03:17;;;;;;;23.87;18.57;;;;;;;29.35;69.13;100157.55;1738021;82;25777;-76
2021/07/14 09:05:44;;;;;;;22.07;16.15;;;;;;;29.47;69.16;100158.31;1648764;82;26096;-77
2021/07/14 09:08:12;;;;;;;17.20;15.03;;;;;;;29.55;67.76;100153.38;1722405;82;25777;-77
2021/07/14 09:10:45;;;;;;;23.20;16.48;;;;;;;29.60;67.77;100159.53;1703450;82;25758;-76
2021/07/14 09:13:13;;;;;;;16.57;14.68;;;;;;;29.68;68.03;100150.44;1736410;80;27850;-77
2021/07/14 09:15:52;;;;;;;17.00;14.68;;;;;;;29.81;68.31;100157.00;1716691;82;25750;-77
2021/07/14 09:18:21;;;;;;;16.95;14.23;;;;;;;29.90;67.17;100158.38;1730550;82;25964;-76
2021/07/14 09:20:48;;;;;;;22.82;18.05;;;;;;;29.94;67.01;100160.73;1726180;82;25784;-76
2021/07/14 09:23:19;;;;;;;23.87;17.90;;;;;;;29.99;66.43;100157.78;1715265;82;25526;-76
2021/07/14 09:26:00;;;;;;;17.55;15.88;;;;;;;30.03;66.55;100151.29;1674505;82;27236;-76
2021/07/14 09:28:34;;;;;;;18.12;14.43;;;;;;;30.09;66.36;100154.12;1735980;81;25965;-77
2021/07/14 09:31:10;;;;;;;16.60;14.87;;;;;;;30.16;66.70;100157.77;1676473;83;25793;-77
2021/07/14 09:33:44;;;;;;;17.42;15.28;;;;;;;30.26;66.78;100161.60;1732109;82;25821;-77
2021/07/14 09:36:11;;;;;;;18.57;15.28;;;;;;;30.38;66.91;100153.47;1698531;81;25998;-77
2021/07/14 09:38:40;;;;;;;16.15;14.65;;;;;;;30.44;66.57;100157.11;1681185;83;27566;-76
2021/07/14 09:41:11;;;;;;;15.63;13.80;;;;;;;30.49;66.81;100165.80;1722952;82;25785;-77
2021/07/14 09:43:42;;;;;;;14.58;13.08;;;;;;;30.62;65.68;100161.21;1723779;82;25790;-76
2021/07/14 09:46:12;;;;;;;17.23;13.35;;;;;;;30.73;66.18;100161.89;1645305;83;26052;-77
2021/07/14 09:48:47;;;;;;;15.35;12.50;;;;;;;30.83;65.69;100157.96;1723372;82;25878;-76
2021/07/14 09:51:19;;;;;;;18.20;12.28;;;;;;;30.94;64.81;100155.92;1698221;81;27626;-77
2021/07/14 09:53:53;;;;;;;14.73;13.35;;;;;;;31.04;63.64;100158.87;1743209;81;25724;-77
2021/07/14 09:56:27;;;;;;;15.20;13.62;;;;;;;31.09;63.95;100159.48;1670080;81;26045;-76
2021/07/14 09:59:07;;;;;;;15.25;13.72;;;;;;;31.15;63.55;100170.62;1691087;81;26600;-77
2021/07/14 10:01:45;;;;;;;14.35;12.85;;;;;;;31.21;62.65;100167.91;1707243;82;25967;-77
2021/07/14 10:04:30;;;;;;;13.98;12.45;;;;;;;31.28;63.33;100171.53;1728100;82;27462;-77
2021/07/14 10:07:10;;;;;;;13.45;11.95;;;;;;;31.35;62.44;100166.85;1695160;81;26687;-77
2021/07/14 10:09:39;;;;;;;16.57;13.28;;;;;;;31.45;62.30;100165.09;1704719;83;25801;-77
2021/07/14 10:12:34;;;;;;;15.90;12.90;;;;;;;31.53;61.45;100164.22;1697772;82;25750;-76
2021/07/14 10:15:19;;;;;;;14.00;12.33;;;;;;;31.54;60.19;100168.06;1741618;81;25484;-77
2021/07/14 10:17:50;;;;;;;18.98;12.78;;;;;;;31.46;60.23;100168.91;1694348;81;27498;-76
2021/07/14 10:20:38;;;;;;;14.85;12.78;;;;;;;31.52;61.19;100170.92;1741456;81;26613;-77
2021/07/14 10:23:15;;;;;;;17.20;12.78;;;;;;;31.58;61.15;100168.19;1691791;83;25853;-77
2021/07/14 10:25:46;;;;;;;14.78;13.28;;;;;;;31.62;61.29;100171.34;1739393;81;25711;-77
2021/07/14 10:28:20;;;;;;;14.28;12.78;;;;;;;31.71;61.36;100167.13;1665184;81;25888;-77
2021/07/14 10:30:47;;;;;;;13.50;12.03;;;;;;;31.82;61.17;100171.91;1700792;81;27769;-76
2021/07/14 10:33:20;;;;;;;14.13;12.03;;;;;;;31.88;61.59;100172.52;1743083;81;25908;-76
2021/07/14 10:35:52;;;;;;;13.55;12.03;;;;;;;31.95;60.53;100171.42;1729042;81;25795;-77
2021/07/14 10:38:29;;;;;;;15.03;13.28;;;;;;;31.97;60.50;100167.77;1721154;81;26070;-77
2021/07/14 10:40:56;;;;;;;14.93;12.47;;;;;;;31.95;60.43;100169.47;1719153;81;25962;-77
2021/07/14 10:43:27;;;;;;;16.25;12.15;;;;;;;32.00;60.62;100167.63;1691598;83;28165;-77
2021/07/14 10:45:54;;;;;;;;;;;;;;;32.10;60.84;100172.19;1745300;81;25902;-77
2021/07/14 10:48:24;;;;;;;13.40;12.13;;;;;;;32.20;59.55;100171.78;1702626;81;26522;-77
2021/07/14 10:50:54;;;;;;;13.25;11.90;;;;;;;32.29;58.90;100181.41;1723608;81;25780;-77
2021/07/14 10:53:22;;;;;;;13.60;11.53;;;;;;;32.38;58.76;100176.56;1738731;80;25767;-77
2021/07/14 10:55:52;;;;;;;14.30;11.73;;;;;;;32.45;58.56;100178.20;1705717;81;28313;-77
2021/07/14 10:58:23;;;;;;;13.20;11.73;;;;;;;32.50;58.25;100176.64;1690907;83;26077;-76
2021/07/14 11:00:50;;;;;;;15.25;10.95;;;;;;;32.58;58.87;100177.94;1705288;82;26481;-77
2021/07/14 11:03:38;;;;;;;11.12;10.03;;;;;;;32.66;58.52;100179.80;1739409;81;25792;-77
2021/07/14 11:06:09;;;;;;;12.25;10.95;;;;;;;32.73;57.80;100179.80;1713110;81;25894;-77
2021/07/14 11:08:48;;;;;;;14.95;10.60;;;;;;;32.82;57.25;100179.95;1679347;83;28293;-77
2021/07/14 11:11:22;;;;;;;11.35;10.20;;;;;;;32.91;56.36;100184.83;1707521;81;25456;-76
2021/07/14 11:14:07;;;;;;;13.13;10.58;;;;;;;32.99;56.75;100177.00;1741432;81;25812;-77
2021/07/14 11:16:37;;;;;;;10.78;9.78;;;;;;;33.06;55.86;100179.20;1688856;83;26099;-77
2021/07/14 11:19:14;;;;;;;15.05;9.50;;;;;;;33.15;56.61;100179.30;1696064;81;33065;-76
2021/07/14 11:21:52;;;;;;;13.60;9.75;;;;;;;33.21;55.38;100173.73;1716484;81;28225;-77
2021/07/14 11:24:51;;;;;;;16.20;11.22;;;;;;;33.28;56.02;100179.53;1739402;81;26038;-77
2021/07/14 11:27:28;;;;;;;18.55;11.28;;;;;;;33.36;55.81;100182.76;1713473;81;25955;-77
2021/07/14 11:30:07;;;;;;;11.95;10.45;;;;;;;33.41;55.38;100176.16;1713377;81;25901;-77